createdAt,value
2023-05-22T00:00:19.295Z,14.62
2023-05-22T00:01:19.336Z,14.70
2023-05-22T00:02:19.354Z,14.65
2023-05-22T00:03:19.280Z,14.66
2023-05-22T00:04:19.247Z,14.66
2023-05-22T00:05:19.242Z,14.59
2023-05-22T00:06:19.214Z,14.62
2023-05-22T00:07:19.224Z,14.61
2023-05-22T00:08:19.186Z,14.65
2023-05-22T00:09:19.188Z,14.56
2023-05-22T00:10:19.164Z,14.45
2023-05-22T00:11:19.261Z,14.55
2023-05-22T00:12:19.143Z,14.48
2023-05-22T00:13:19.126Z,14.45
2023-05-22T00:14:19.112Z,14.55
2023-05-22T00:15:19.105Z,14.53
2023-05-22T00:16:19.097Z,14.47
2023-05-22T00:17:19.133Z,14.55
2023-05-22T00:18:19.059Z,14.47
2023-05-22T00:19:19.063Z,14.47
2023-05-22T00:20:19.047Z,14.47
2023-05-22T00:21:19.020Z,14.48
2023-05-22T00:22:19.006Z,14.50
2023-05-22T00:23:19.024Z,14.43
2023-05-22T00:24:18.988Z,14.45
2023-05-22T00:25:18.992Z,14.44
2023-05-22T00:26:18.958Z,14.44
2023-05-22T00:27:18.951Z,14.36
2023-05-22T00:28:18.934Z,14.40
2023-05-22T00:29:18.922Z,14.36
2023-05-22T00:30:18.906Z,14.36
2023-05-22T00:31:18.891Z,14.33
2023-05-22T00:32:18.879Z,14.28
2023-05-22T00:33:18.887Z,14.26
2023-05-22T00:34:18.872Z,14.32
2023-05-22T00:35:18.841Z,14.28
2023-05-22T00:36:18.824Z,14.28
2023-05-22T00:37:18.828Z,14.26
2023-05-22T00:38:18.810Z,14.26
2023-05-22T00:39:18.794Z,14.26
2023-05-22T00:40:18.787Z,14.32
2023-05-22T00:41:18.769Z,14.33
2023-05-22T00:42:18.773Z,14.33
2023-05-22T00:43:18.760Z,14.37
2023-05-22T00:44:18.745Z,14.29
2023-05-22T00:45:18.766Z,14.26
2023-05-22T00:46:18.743Z,14.30
2023-05-22T00:47:18.688Z,14.26
2023-05-22T00:48:18.679Z,14.29
2023-05-22T00:49:18.667Z,14.25
2023-05-22T00:50:18.656Z,14.25
2023-05-22T00:51:18.633Z,14.29
2023-05-22T00:52:18.621Z,14.26
2023-05-22T00:53:18.609Z,14.26
2023-05-22T00:54:18.594Z,14.37
2023-05-22T00:55:18.596Z,14.28
2023-05-22T00:56:18.568Z,14.26
2023-05-22T00:57:18.559Z,14.26
2023-05-22T00:58:18.568Z,14.37
2023-05-22T00:59:18.544Z,14.33
2023-05-22T01:00:18.520Z,14.29
2023-05-22T01:01:18.552Z,14.38
2023-05-22T01:02:18.503Z,14.38
2023-05-22T01:03:18.664Z,14.43
2023-05-22T01:04:18.588Z,14.41
2023-05-22T01:05:18.514Z,14.45
2023-05-22T01:06:18.442Z,14.44
2023-05-22T01:07:18.423Z,14.40
2023-05-22T01:08:18.418Z,14.41
2023-05-22T01:09:18.409Z,14.38
2023-05-22T01:10:18.395Z,14.44
2023-05-22T01:11:18.369Z,14.53
2023-05-22T01:12:18.362Z,14.50
2023-05-22T01:13:18.348Z,14.48
2023-05-22T01:14:18.329Z,14.51
2023-05-22T01:15:18.335Z,14.47
2023-05-22T01:16:18.480Z,14.55
2023-05-22T01:17:18.296Z,14.48
2023-05-22T01:18:18.281Z,14.51
2023-05-22T01:19:18.349Z,14.50
2023-05-22T01:20:18.259Z,14.56
2023-05-22T01:21:18.247Z,14.61
2023-05-22T01:22:18.232Z,14.62
2023-05-22T01:23:18.221Z,14.61
2023-05-22T01:24:18.198Z,14.61
2023-05-22T01:25:18.213Z,14.62
2023-05-22T01:26:18.180Z,14.63
2023-05-22T01:27:18.165Z,14.63
2023-05-22T01:28:18.151Z,14.59
2023-05-22T01:29:18.142Z,14.62
2023-05-22T01:30:18.136Z,14.59
2023-05-22T01:31:18.117Z,14.65
2023-05-22T01:32:18.107Z,14.63
2023-05-22T01:33:18.242Z,14.66
2023-05-22T01:34:18.079Z,14.59
2023-05-22T01:35:18.072Z,14.59
2023-05-22T01:36:18.057Z,14.62
2023-05-22T01:37:18.056Z,14.55
2023-05-22T01:38:18.024Z,14.56
2023-05-22T01:39:18.039Z,14.62
2023-05-22T01:40:18.015Z,14.61
2023-05-22T01:41:17.985Z,14.61
2023-05-22T01:42:17.980Z,14.58
2023-05-22T01:43:17.988Z,14.51
2023-05-22T01:44:17.948Z,14.59
2023-05-22T01:45:17.934Z,14.61
2023-05-22T01:46:18.042Z,14.47
2023-05-22T01:47:17.900Z,14.55
2023-05-22T01:48:17.990Z,14.44
2023-05-22T01:49:17.876Z,14.50
2023-05-22T01:50:17.869Z,14.55
2023-05-22T01:51:17.851Z,14.44
2023-05-22T01:52:17.845Z,14.43
2023-05-22T01:53:17.824Z,14.43
2023-05-22T01:54:17.811Z,14.40
2023-05-22T01:55:17.817Z,14.43
2023-05-22T01:56:17.828Z,14.38
2023-05-22T01:57:17.777Z,14.40
2023-05-22T01:58:17.762Z,14.36
2023-05-22T01:59:17.747Z,14.37
2023-05-22T02:00:17.739Z,14.40
2023-05-22T02:01:17.756Z,14.37
2023-05-22T02:02:17.752Z,14.30
2023-05-22T02:03:17.885Z,14.29
2023-05-22T02:04:17.686Z,14.26
2023-05-22T02:05:17.672Z,14.28
2023-05-22T02:06:17.658Z,14.20
2023-05-22T02:07:17.643Z,14.29
2023-05-22T02:08:17.629Z,14.29
2023-05-22T02:09:17.615Z,14.25
2023-05-22T02:10:17.613Z,14.26
2023-05-22T02:11:17.589Z,14.23
2023-05-22T02:12:17.613Z,14.15
2023-05-22T02:13:17.571Z,14.13
2023-05-22T02:14:17.549Z,14.19
2023-05-22T02:15:17.535Z,14.32
2023-05-22T02:16:17.747Z,14.15
2023-05-22T02:17:17.515Z,14.14
2023-05-22T02:18:17.496Z,14.18
2023-05-22T02:19:17.502Z,14.15
2023-05-22T02:20:17.682Z,14.15
2023-05-22T02:21:17.459Z,14.19
2023-05-22T02:22:17.445Z,14.20
2023-05-22T02:23:17.443Z,14.18
2023-05-22T02:24:17.426Z,14.11
2023-05-22T02:25:17.732Z,14.11
2023-05-22T02:26:17.396Z,14.15
2023-05-22T02:27:17.437Z,14.13
2023-05-22T02:28:17.364Z,14.18
2023-05-22T02:29:17.363Z,14.19
2023-05-22T02:30:17.350Z,14.10
2023-05-22T02:31:17.411Z,14.10
2023-05-22T02:32:17.314Z,14.05
2023-05-22T02:33:17.301Z,14.14
2023-05-22T02:34:17.283Z,14.10
2023-05-22T02:35:17.275Z,14.03
2023-05-22T02:36:17.260Z,14.03
2023-05-22T02:37:17.249Z,14.04
2023-05-22T02:38:17.242Z,14.07
2023-05-22T02:39:17.220Z,14.07
2023-05-22T02:40:17.208Z,14.05
2023-05-22T02:41:17.191Z,14.11
2023-05-22T02:42:17.180Z,14.03
2023-05-22T02:43:17.169Z,13.95
2023-05-22T02:44:17.154Z,14.04
2023-05-22T02:45:17.150Z,14.01
2023-05-22T02:46:17.148Z,14.03
2023-05-22T02:47:17.113Z,13.93
2023-05-22T02:48:17.145Z,14.03
2023-05-22T02:49:17.090Z,14.03
2023-05-22T02:50:17.072Z,14.05
2023-05-22T02:51:17.060Z,14.08
2023-05-22T02:52:17.052Z,13.96
2023-05-22T02:53:17.041Z,14.07
2023-05-22T02:54:17.014Z,13.96
2023-05-22T02:55:17.002Z,13.97
2023-05-22T02:56:16.996Z,13.95
2023-05-22T02:57:16.977Z,13.92
2023-05-22T02:58:16.975Z,13.85
2023-05-22T02:59:16.949Z,13.96
2023-05-22T03:00:16.968Z,13.89
2023-05-22T03:01:16.950Z,13.90
2023-05-22T03:02:16.914Z,13.89
2023-05-22T03:03:17.012Z,13.89
2023-05-22T03:04:16.886Z,13.89
2023-05-22T03:05:16.873Z,13.90
2023-05-22T03:06:16.854Z,13.93
2023-05-22T03:07:16.841Z,13.86
2023-05-22T03:08:16.829Z,13.93
2023-05-22T03:09:16.814Z,13.89
2023-05-22T03:10:16.812Z,13.92
2023-05-22T03:11:16.788Z,13.90
2023-05-22T03:12:16.776Z,13.89
2023-05-22T03:13:16.766Z,13.92
2023-05-22T03:14:16.749Z,13.97
2023-05-22T03:15:16.735Z,13.86
2023-05-22T03:16:16.774Z,13.89
2023-05-22T03:17:16.716Z,13.89
2023-05-22T03:18:16.694Z,13.95
2023-05-22T03:19:16.745Z,13.85
2023-05-22T03:20:16.680Z,13.90
2023-05-22T03:21:16.666Z,13.92
2023-05-22T03:22:16.728Z,13.89
2023-05-22T03:23:16.629Z,13.95
2023-05-22T03:24:16.629Z,13.93
2023-05-22T03:25:16.605Z,13.89
2023-05-22T03:26:16.593Z,13.92
2023-05-22T03:27:16.594Z,13.93
2023-05-22T03:28:16.568Z,13.90
2023-05-22T03:29:16.612Z,13.95
2023-05-22T03:30:16.549Z,13.88
2023-05-22T03:31:16.534Z,13.95
2023-05-22T03:32:16.539Z,13.83
2023-05-22T03:33:16.529Z,13.90
2023-05-22T03:34:16.491Z,13.90
2023-05-22T03:35:16.532Z,13.89
2023-05-22T03:36:16.454Z,13.80
2023-05-22T03:37:16.464Z,13.80
2023-05-22T03:38:16.444Z,13.86
2023-05-22T03:39:16.432Z,13.86
2023-05-22T03:40:16.572Z,13.86
2023-05-22T03:41:16.421Z,13.90
2023-05-22T03:42:16.413Z,13.77
2023-05-22T03:43:16.369Z,13.75
2023-05-22T03:44:16.354Z,13.75
2023-05-22T03:45:16.343Z,13.78
2023-05-22T03:46:16.334Z,13.82
2023-05-22T03:47:16.328Z,13.85
2023-05-22T03:48:16.320Z,13.72
2023-05-22T03:49:16.287Z,13.78
2023-05-22T03:50:16.274Z,13.88
2023-05-22T03:51:18.080Z,13.88
2023-05-22T03:52:16.254Z,13.78
2023-05-22T03:53:16.236Z,13.82
2023-05-22T03:54:16.216Z,13.78
2023-05-22T03:55:16.200Z,13.88
2023-05-22T03:56:16.554Z,13.86
2023-05-22T03:57:16.207Z,13.88
2023-05-22T03:58:16.167Z,13.90
2023-05-22T03:59:16.154Z,13.85
2023-05-22T04:00:16.133Z,13.83
2023-05-22T04:01:16.124Z,13.80
2023-05-22T04:02:16.156Z,13.88
2023-05-22T04:03:16.209Z,13.86
2023-05-22T04:04:16.083Z,13.90
2023-05-22T04:05:16.121Z,13.88
2023-05-22T04:06:16.057Z,13.88
2023-05-22T04:07:16.046Z,13.86
2023-05-22T04:08:16.025Z,13.92
2023-05-22T04:09:16.025Z,13.93
2023-05-22T04:10:25.199Z,13.90
2023-05-22T04:12:21.088Z,13.95
2023-05-22T04:13:20.915Z,13.96
2023-05-22T04:15:25.273Z,13.96
2023-05-22T04:16:25.707Z,14.08
2023-05-22T04:20:25.880Z,14.19
2023-05-22T04:21:26.208Z,14.20
2023-05-22T04:23:31.436Z,14.22
2023-05-22T04:24:31.502Z,14.29
2023-05-22T04:25:31.398Z,14.22
2023-05-22T04:26:31.113Z,14.25
2023-05-22T04:27:31.117Z,14.30
2023-05-22T04:28:31.127Z,14.38
2023-05-22T04:29:31.406Z,14.45
2023-05-22T04:30:31.376Z,14.41
2023-05-22T04:31:31.424Z,14.50
2023-05-22T04:32:30.938Z,14.47
2023-05-22T04:33:30.900Z,14.51
2023-05-22T04:34:30.885Z,14.56
2023-05-22T04:35:30.878Z,14.62
2023-05-22T04:36:30.879Z,14.63
2023-05-22T04:37:30.863Z,14.68
2023-05-22T04:38:30.842Z,14.68
2023-05-22T04:39:30.822Z,14.66
2023-05-22T04:40:30.805Z,14.68
2023-05-22T04:41:30.794Z,14.84
2023-05-22T04:42:30.799Z,14.79
2023-05-22T04:43:30.769Z,14.95
2023-05-22T04:44:30.753Z,14.99
2023-05-22T04:45:30.756Z,14.95
2023-05-22T04:46:30.771Z,15.09
2023-05-22T04:47:30.748Z,15.19
2023-05-22T04:48:30.708Z,15.19
2023-05-22T04:49:30.694Z,15.17
2023-05-22T04:50:30.687Z,15.35
2023-05-22T04:51:30.665Z,15.36
2023-05-22T04:52:30.671Z,15.54
2023-05-22T04:53:30.640Z,15.60
2023-05-22T04:54:30.629Z,15.70
2023-05-22T04:55:30.610Z,15.76
2023-05-22T04:57:30.589Z,15.88
2023-05-22T04:58:30.569Z,16.01
2023-05-22T04:59:30.565Z,16.10
2023-05-22T05:00:30.556Z,16.10
2023-05-22T05:01:33.087Z,16.21
2023-05-22T05:02:30.552Z,16.29
2023-05-22T05:03:30.558Z,16.39
2023-05-22T05:04:30.504Z,16.46
2023-05-22T05:05:30.479Z,16.49
2023-05-22T05:06:30.468Z,16.62
2023-05-22T05:07:30.455Z,16.68
2023-05-22T05:08:30.439Z,16.74
2023-05-22T05:09:30.432Z,16.82
2023-05-22T05:10:30.415Z,16.87
2023-05-22T05:11:30.404Z,16.99
2023-05-22T05:12:30.385Z,17.09
2023-05-22T05:13:30.379Z,17.17
2023-05-22T05:14:30.378Z,17.17
2023-05-22T05:15:30.354Z,17.30
2023-05-22T05:16:30.419Z,17.37
2023-05-22T05:17:30.360Z,17.45
2023-05-22T05:18:30.317Z,17.59
2023-05-22T05:19:30.448Z,17.59
2023-05-22T05:20:30.306Z,17.65
2023-05-22T05:21:30.277Z,17.70
2023-05-22T05:22:30.377Z,17.89
2023-05-22T05:23:30.261Z,17.94
2023-05-22T05:24:30.240Z,18.03
2023-05-22T05:25:30.228Z,18.16
2023-05-22T05:26:30.212Z,18.19
2023-05-22T05:27:30.210Z,18.26
2023-05-22T05:28:30.189Z,18.43
2023-05-22T05:29:30.184Z,18.49
2023-05-22T05:30:30.161Z,18.56
2023-05-22T05:31:30.186Z,18.60
2023-05-22T05:32:30.153Z,18.74
2023-05-22T05:33:30.128Z,18.81
2023-05-22T05:34:30.114Z,18.93
2023-05-22T05:35:30.107Z,18.99
2023-05-22T05:36:30.136Z,19.15
2023-05-22T05:37:30.079Z,19.26
2023-05-22T05:38:30.069Z,19.29
2023-05-22T05:39:30.082Z,19.46
2023-05-22T05:40:30.048Z,19.55
2023-05-22T05:41:30.090Z,19.59
2023-05-22T05:42:30.042Z,19.66
2023-05-22T05:43:30.063Z,19.81
2023-05-22T05:44:30.018Z,20.07
2023-05-22T05:45:30.005Z,20.07
2023-05-22T05:46:30.046Z,20.15
2023-05-22T05:47:30.014Z,20.29
2023-05-22T05:48:29.968Z,20.39
2023-05-22T05:49:29.963Z,20.50
2023-05-22T05:50:29.935Z,20.62
2023-05-22T05:51:29.924Z,20.72
2023-05-22T05:52:29.913Z,20.80
2023-05-22T05:53:29.906Z,20.96
2023-05-22T05:54:29.896Z,21.05
2023-05-22T05:55:29.882Z,21.15
2023-05-22T05:56:29.870Z,21.29
2023-05-22T05:57:29.858Z,21.40
2023-05-22T05:58:29.846Z,21.52
2023-05-22T05:59:29.839Z,21.67
2023-05-22T06:00:29.893Z,21.81
2023-05-22T06:01:29.821Z,22.05
2023-05-22T06:02:29.880Z,22.22
2023-05-22T06:03:29.936Z,22.44
2023-05-22T06:04:29.793Z,22.54
2023-05-22T06:05:29.861Z,22.68
2023-05-22T06:06:29.769Z,22.88
2023-05-22T06:07:29.789Z,22.91
2023-05-22T06:08:29.758Z,23.09
2023-05-22T06:09:29.731Z,23.21
2023-05-22T06:10:29.790Z,23.46
2023-05-22T06:11:29.745Z,23.59
2023-05-22T06:12:29.742Z,23.68
2023-05-22T06:13:29.699Z,23.90
2023-05-22T06:14:29.688Z,23.98
2023-05-22T06:15:29.671Z,24.17
2023-05-22T06:16:29.834Z,24.23
2023-05-22T06:17:29.986Z,24.40
2023-05-22T06:18:29.653Z,24.62
2023-05-22T06:19:29.749Z,24.66
2023-05-22T06:20:29.682Z,24.82
2023-05-22T06:21:29.617Z,24.93
2023-05-22T06:22:29.622Z,25.00
2023-05-22T06:23:29.638Z,25.14
2023-05-22T06:24:29.590Z,25.25
2023-05-22T06:25:29.590Z,25.40
2023-05-22T06:26:29.569Z,25.45
2023-05-22T06:27:29.565Z,25.62
2023-05-22T06:28:29.554Z,25.63
2023-05-22T06:29:29.542Z,25.81
2023-05-22T06:30:39.529Z,25.92
2023-05-22T06:31:29.533Z,25.95
2023-05-22T06:32:29.599Z,26.02
2023-05-22T06:33:29.635Z,26.16
2023-05-22T06:34:29.703Z,26.18
2023-05-22T06:35:29.503Z,26.22
2023-05-22T06:36:29.494Z,26.37
2023-05-22T06:37:29.488Z,26.44
2023-05-22T06:38:29.477Z,26.49
2023-05-22T06:39:31.169Z,26.62
2023-05-22T06:40:29.504Z,26.77
2023-05-22T06:41:29.453Z,26.80
2023-05-22T06:42:29.442Z,26.89
2023-05-22T06:43:29.427Z,26.87
2023-05-22T06:44:29.428Z,26.86
2023-05-22T06:45:29.433Z,26.89
2023-05-22T06:46:29.509Z,27.05
2023-05-22T06:47:29.434Z,27.08
2023-05-22T06:48:29.395Z,27.12
2023-05-22T06:49:29.384Z,27.26
2023-05-22T06:50:29.467Z,27.33
2023-05-22T06:51:29.371Z,27.39
2023-05-22T06:52:29.357Z,27.55
2023-05-22T06:53:29.350Z,27.65
2023-05-22T06:54:29.346Z,27.79
2023-05-22T06:55:29.339Z,27.95
2023-05-22T06:56:29.332Z,28.23
2023-05-22T06:57:29.326Z,28.44
2023-05-22T06:58:29.321Z,28.75
2023-05-22T06:59:29.308Z,29.54
2023-05-22T07:00:29.428Z,30.80
2023-05-22T07:01:29.372Z,32.30
2023-05-22T07:02:29.360Z,33.55
2023-05-22T07:03:29.280Z,34.56
2023-05-22T07:04:29.277Z,35.36
2023-05-22T07:05:29.333Z,36.04
2023-05-22T07:06:29.274Z,36.58
2023-05-22T07:07:29.275Z,37.05
2023-05-22T07:08:30.732Z,37.43
2023-05-22T07:09:29.273Z,37.88
2023-05-22T07:10:29.238Z,38.21
2023-05-22T07:11:29.242Z,38.42
2023-05-22T07:12:29.261Z,38.71
2023-05-22T07:13:29.270Z,39.28
2023-05-22T07:14:29.217Z,39.90
2023-05-22T07:15:29.302Z,40.52
2023-05-22T07:16:29.269Z,41.12
2023-05-22T07:17:29.308Z,41.44
2023-05-22T07:18:29.307Z,41.91
2023-05-22T07:19:29.397Z,42.48
2023-05-22T07:20:29.298Z,42.83
2023-05-22T07:21:29.183Z,43.01
2023-05-22T07:22:29.187Z,42.54
2023-05-22T07:23:29.324Z,41.98
2023-05-22T07:24:29.174Z,41.99
2023-05-22T07:25:29.168Z,42.04
2023-05-22T07:26:29.162Z,42.34
2023-05-22T07:27:29.166Z,43.17
2023-05-22T07:28:29.155Z,43.84
2023-05-22T07:29:29.161Z,44.38
2023-05-22T07:30:29.160Z,44.82
2023-05-22T07:31:29.185Z,45.13
2023-05-22T07:32:29.241Z,44.75
2023-05-22T07:33:29.142Z,43.87
2023-05-22T07:34:29.694Z,43.04
2023-05-22T07:35:29.133Z,42.86
2023-05-22T07:36:29.151Z,43.05
2023-05-22T07:37:29.141Z,43.34
2023-05-22T07:38:29.129Z,44.19
2023-05-22T07:39:29.497Z,44.92
2023-05-22T07:40:29.124Z,45.32
2023-05-22T07:41:29.127Z,45.66
2023-05-22T07:42:29.138Z,45.91
2023-05-22T07:43:29.133Z,46.10
2023-05-22T07:44:29.115Z,46.26
2023-05-22T07:45:29.119Z,46.26
2023-05-22T07:46:29.246Z,45.97
2023-05-22T07:47:29.169Z,45.32
2023-05-22T07:48:29.106Z,44.62
2023-05-22T07:49:29.118Z,43.75
2023-05-22T07:50:29.100Z,42.86
2023-05-22T07:51:29.100Z,42.17
2023-05-22T07:52:29.107Z,42.10
2023-05-22T07:53:29.093Z,42.42
2023-05-22T07:54:29.099Z,42.71
2023-05-22T07:55:29.348Z,43.12
2023-05-22T07:56:29.096Z,43.07
2023-05-22T07:57:29.086Z,42.71
2023-05-22T07:58:29.089Z,42.38
2023-05-22T07:59:29.104Z,42.23
2023-05-22T08:00:29.090Z,42.41
2023-05-22T08:01:29.085Z,42.01
2023-05-22T08:02:29.164Z,41.28
2023-05-22T08:03:29.389Z,40.63
2023-05-22T08:04:29.188Z,40.44
2023-05-22T08:05:29.080Z,40.48
2023-05-22T08:06:29.082Z,40.62
2023-05-22T08:07:29.073Z,40.56
2023-05-22T08:08:31.714Z,40.38
2023-05-22T08:09:29.065Z,40.03
2023-05-22T08:10:37.278Z,39.80
2023-05-22T08:11:29.189Z,39.60
2023-05-22T08:12:29.060Z,39.64
2023-05-22T08:13:29.078Z,39.41
2023-05-22T08:14:29.055Z,39.15
2023-05-22T08:15:29.053Z,38.85
2023-05-22T08:16:29.136Z,38.47
2023-05-22T08:17:29.070Z,38.24
2023-05-22T08:18:29.409Z,37.93
2023-05-22T08:19:29.127Z,37.42
2023-05-22T08:20:29.116Z,37.08
2023-05-22T08:21:29.041Z,36.71
2023-05-22T08:22:29.068Z,36.49
2023-05-22T08:23:29.042Z,36.14
2023-05-22T08:24:29.049Z,35.94
2023-05-22T08:25:29.053Z,35.82
2023-05-22T08:26:30.155Z,35.65
2023-05-22T08:27:29.086Z,35.49
2023-05-22T08:28:29.027Z,35.23
2023-05-22T08:29:29.079Z,35.06
2023-05-22T08:30:29.019Z,34.87
2023-05-22T08:31:29.065Z,34.64
2023-05-22T08:32:30.516Z,34.49
2023-05-22T08:33:29.007Z,34.44
2023-05-22T08:34:29.016Z,34.21
2023-05-22T08:35:29.014Z,34.14
2023-05-22T08:36:29.006Z,34.14
2023-05-22T08:37:28.996Z,34.22
2023-05-22T08:38:28.999Z,34.26
2023-05-22T08:39:28.989Z,34.56
2023-05-22T08:40:28.989Z,34.67
2023-05-22T08:41:28.989Z,34.77
2023-05-22T08:42:28.997Z,35.05
2023-05-22T08:43:29.328Z,35.23
2023-05-22T08:44:28.973Z,35.69
2023-05-22T08:45:28.979Z,36.05
2023-05-22T08:46:29.016Z,36.28
2023-05-22T08:47:28.979Z,36.56
2023-05-22T08:48:28.954Z,37.02
2023-05-22T08:49:28.952Z,37.30
2023-05-22T08:50:28.977Z,37.66
2023-05-22T08:51:28.973Z,37.72
2023-05-22T08:52:28.960Z,37.87
2023-05-22T08:53:28.942Z,38.24
2023-05-22T08:54:28.941Z,38.49
2023-05-22T08:55:28.933Z,38.66
2023-05-22T08:56:29.750Z,39.15
2023-05-22T08:57:28.941Z,39.60
2023-05-22T08:58:28.929Z,40.15
2023-05-22T08:59:28.922Z,40.82
2023-05-22T09:00:28.918Z,41.37
2023-05-22T09:01:28.942Z,41.81
2023-05-22T09:02:28.931Z,42.18
2023-05-22T09:03:29.029Z,42.57
2023-05-22T09:04:28.911Z,42.85
2023-05-22T09:05:28.905Z,43.19
2023-05-22T09:06:28.913Z,43.62
2023-05-22T09:07:28.917Z,43.99
2023-05-22T09:08:28.901Z,44.35
2023-05-22T09:09:28.894Z,44.84
2023-05-22T09:10:28.895Z,45.21
2023-05-22T09:11:28.901Z,45.73
2023-05-22T09:12:28.919Z,46.18
2023-05-22T09:13:28.890Z,46.42
2023-05-22T09:14:28.891Z,46.48
2023-05-22T09:15:29.008Z,46.75
2023-05-22T09:16:28.903Z,47.12
2023-05-22T09:17:28.904Z,47.42
2023-05-22T09:18:28.910Z,47.98
2023-05-22T09:19:28.956Z,48.22
2023-05-22T09:20:28.883Z,48.61
2023-05-22T09:21:30.556Z,49.21
2023-05-22T09:22:28.909Z,49.72
2023-05-22T09:23:28.887Z,49.87
2023-05-22T09:24:28.886Z,50.11
2023-05-22T09:25:28.888Z,50.39
2023-05-22T09:26:28.885Z,50.53
2023-05-22T09:27:28.888Z,50.58
2023-05-22T09:28:29.064Z,50.72
2023-05-22T09:29:28.897Z,50.79
2023-05-22T09:30:28.907Z,51.01
2023-05-22T09:31:29.103Z,51.23
2023-05-22T09:34:11.180Z,51.96
2023-05-22T09:35:11.675Z,52.35
2023-05-22T09:37:16.434Z,52.94
2023-05-22T09:38:16.362Z,53.36
2023-05-22T09:39:16.368Z,53.94
2023-05-22T09:40:17.677Z,54.56
2023-05-22T09:41:19.425Z,55.33
2023-05-22T09:42:16.368Z,55.99
2023-05-22T09:43:16.317Z,56.43
2023-05-22T09:44:16.510Z,57.10
2023-05-22T09:45:16.330Z,57.54
2023-05-22T09:46:16.357Z,57.91
2023-05-22T09:47:16.401Z,58.31
2023-05-22T09:48:16.361Z,58.71
2023-05-22T09:50:57.629Z,59.86
2023-05-22T09:51:58.262Z,60.22
2023-05-22T09:54:09.573Z,60.61
2023-05-22T09:55:02.867Z,59.85
2023-05-22T09:57:08.642Z,58.68
2023-05-22T09:58:08.604Z,59.59
2023-05-22T10:00:14.127Z,60.76
2023-05-22T10:01:13.949Z,60.41
2023-05-22T10:02:13.861Z,61.05
2023-05-22T10:03:14.193Z,61.44
2023-05-22T10:04:14.005Z,61.64
2023-05-22T10:05:13.799Z,61.86
2023-05-22T10:06:13.813Z,62.12
2023-05-22T10:07:13.869Z,62.53
2023-05-22T10:08:13.825Z,62.65
2023-05-22T10:09:13.826Z,62.92
2023-05-22T10:10:13.832Z,63.07
2023-05-22T10:11:13.844Z,63.20
2023-05-22T10:12:13.908Z,63.46
2023-05-22T10:13:13.888Z,63.74
2023-05-22T10:14:13.948Z,64.00
2023-05-22T10:15:13.878Z,64.20
2023-05-22T10:16:13.913Z,64.39
2023-05-22T10:17:13.888Z,64.48
2023-05-22T10:18:13.903Z,64.64
2023-05-22T10:19:14.116Z,64.57
2023-05-22T10:20:13.947Z,64.52
2023-05-22T10:21:13.929Z,64.49
2023-05-22T10:22:13.933Z,64.30
2023-05-22T10:23:13.945Z,64.30
2023-05-22T10:24:13.954Z,64.36
2023-05-22T10:25:14.125Z,64.64
2023-05-22T10:26:13.972Z,64.87
2023-05-22T10:27:13.981Z,64.90
2023-05-22T10:28:13.996Z,65.00
2023-05-22T10:29:14.041Z,65.16
2023-05-22T10:30:14.013Z,64.10
2023-05-22T10:31:14.016Z,62.80
2023-05-22T10:32:14.274Z,62.94
2023-05-22T10:33:15.270Z,63.01
2023-05-22T10:34:14.045Z,63.24
2023-05-22T10:35:14.161Z,61.64
2023-05-22T10:36:14.093Z,60.20
2023-05-22T10:37:18.116Z,58.91
2023-05-22T10:38:14.090Z,57.99
2023-05-22T10:39:14.111Z,56.67
2023-05-22T10:40:14.121Z,56.34
2023-05-22T10:41:18.244Z,55.94
2023-05-22T10:42:14.128Z,55.17
2023-05-22T10:43:14.134Z,55.68
2023-05-22T10:44:14.138Z,56.17
2023-05-22T10:45:14.153Z,57.10
2023-05-22T10:46:14.192Z,56.27
2023-05-22T10:47:14.175Z,55.14
2023-05-22T10:48:14.185Z,54.09
2023-05-22T10:49:14.180Z,53.95
2023-05-22T10:50:14.191Z,53.72
2023-05-22T10:51:14.357Z,52.83
2023-05-22T10:52:14.228Z,52.19
2023-05-22T10:53:14.213Z,51.63
2023-05-22T10:54:14.215Z,51.36
2023-05-22T10:55:14.243Z,50.70
2023-05-22T10:56:16.652Z,50.02
2023-05-22T10:57:14.238Z,50.03
2023-05-22T10:58:14.240Z,49.87
2023-05-22T10:59:14.247Z,49.99
2023-05-22T11:00:14.313Z,49.80
2023-05-22T11:01:14.357Z,49.62
2023-05-22T11:02:14.317Z,49.23
2023-05-22T11:03:18.331Z,48.85
2023-05-22T11:04:14.632Z,48.51
2023-05-22T11:05:14.287Z,48.03
2023-05-22T11:06:14.287Z,47.94
2023-05-22T11:07:14.396Z,48.15
2023-05-22T11:08:14.298Z,49.00
2023-05-22T11:09:14.299Z,48.69
2023-05-22T11:10:14.310Z,49.30
2023-05-22T11:11:14.400Z,49.21
2023-05-22T11:12:14.344Z,49.62
2023-05-22T11:13:14.314Z,49.34
2023-05-22T11:14:14.368Z,49.59
2023-05-22T11:15:14.324Z,49.87
2023-05-22T11:16:14.333Z,49.72
2023-05-22T11:17:14.459Z,49.58
2023-05-22T11:18:14.486Z,49.80
2023-05-22T11:19:23.310Z,49.24
2023-05-22T11:20:14.358Z,49.77
2023-05-22T11:21:14.348Z,50.51
2023-05-22T11:22:14.369Z,50.46
2023-05-22T11:23:14.456Z,50.54
2023-05-22T11:24:14.358Z,50.87
2023-05-22T11:25:14.360Z,51.45
2023-05-22T11:26:14.364Z,52.56
2023-05-22T11:27:14.373Z,52.18
2023-05-22T11:28:14.378Z,52.87
2023-05-22T11:29:14.380Z,53.49
2023-05-22T11:30:14.387Z,54.12
2023-05-22T11:31:14.431Z,54.65
2023-05-22T11:32:14.397Z,55.26
2023-05-22T11:33:14.670Z,55.68
2023-05-22T11:34:14.427Z,56.00
2023-05-22T11:35:14.419Z,56.15
2023-05-22T11:36:14.434Z,56.46
2023-05-22T11:37:14.427Z,56.43
2023-05-22T11:38:19.524Z,55.26
2023-05-22T11:39:14.533Z,54.92
2023-05-22T11:40:14.439Z,54.72
2023-05-22T11:41:14.434Z,54.84
2023-05-22T11:42:14.518Z,55.68
2023-05-22T11:43:14.446Z,56.23
2023-05-22T11:44:14.455Z,56.98
2023-05-22T11:45:14.458Z,57.38
2023-05-22T11:46:14.508Z,57.82
2023-05-22T11:47:14.473Z,58.24
2023-05-22T11:48:15.689Z,58.52
2023-05-22T11:49:14.490Z,58.78
2023-05-22T11:50:17.868Z,59.00
2023-05-22T11:51:14.497Z,59.04
2023-05-22T11:52:14.501Z,58.84
2023-05-22T11:53:14.510Z,58.71
2023-05-22T11:54:14.635Z,58.53
2023-05-22T11:55:19.646Z,58.47
2023-05-22T11:56:14.540Z,58.58
2023-05-22T11:57:14.535Z,58.53
2023-05-22T11:58:14.582Z,58.52
2023-05-22T11:59:14.553Z,58.38
2023-05-22T12:00:14.742Z,58.35
2023-05-22T12:01:14.611Z,58.10
2023-05-22T12:02:14.562Z,57.95
2023-05-22T12:03:14.639Z,57.93
2023-05-22T12:04:14.664Z,57.73
2023-05-22T12:05:14.578Z,57.50
2023-05-22T12:06:16.524Z,57.35
2023-05-22T12:07:14.597Z,57.18
2023-05-22T12:08:14.630Z,57.02
2023-05-22T12:09:14.611Z,56.84
2023-05-22T12:10:14.710Z,56.68
2023-05-22T12:11:14.836Z,56.60
2023-05-22T12:12:14.663Z,56.43
2023-05-22T12:13:14.632Z,56.33
2023-05-22T12:14:14.644Z,56.29
2023-05-22T12:15:14.654Z,56.26
2023-05-22T12:16:14.696Z,56.19
2023-05-22T12:17:14.682Z,56.23
2023-05-22T12:18:14.695Z,56.26
2023-05-22T12:19:14.727Z,56.22
2023-05-22T12:20:14.709Z,56.13
2023-05-22T12:21:14.698Z,56.04
2023-05-22T12:22:14.776Z,55.76
2023-05-22T12:23:14.736Z,55.72
2023-05-22T12:24:14.707Z,55.48
2023-05-22T12:25:14.716Z,55.41
2023-05-22T12:26:14.817Z,55.34
2023-05-22T12:27:14.729Z,55.14
2023-05-22T12:28:14.725Z,55.01
2023-05-22T12:29:14.730Z,54.84
2023-05-22T12:30:14.984Z,54.79
2023-05-22T12:31:14.782Z,54.43
2023-05-22T12:32:14.781Z,54.18
2023-05-22T12:33:15.437Z,53.88
2023-05-22T12:34:14.770Z,53.52
2023-05-22T12:35:14.772Z,53.27
2023-05-22T12:36:14.798Z,53.21
2023-05-22T12:37:14.792Z,53.04
2023-05-22T12:38:14.802Z,52.99
2023-05-22T12:39:14.830Z,52.90
2023-05-22T12:40:14.817Z,52.64
2023-05-22T12:41:14.849Z,52.45
2023-05-22T12:42:14.921Z,52.04
2023-05-22T12:43:15.132Z,51.65
2023-05-22T12:44:14.834Z,51.48
2023-05-22T12:45:15.860Z,51.25
2023-05-22T12:46:14.846Z,51.08
2023-05-22T12:47:14.845Z,50.92
2023-05-22T12:48:14.882Z,50.76
2023-05-22T12:49:14.860Z,50.79
2023-05-22T12:50:14.887Z,50.58
2023-05-22T12:51:14.865Z,50.57
2023-05-22T12:52:14.876Z,50.35
2023-05-22T12:53:14.875Z,50.09
2023-05-22T12:54:14.885Z,49.99
2023-05-22T12:55:14.885Z,49.86
2023-05-22T12:56:14.887Z,49.55
2023-05-22T12:57:14.903Z,49.38
2023-05-22T12:58:15.015Z,49.14
2023-05-22T12:59:14.899Z,48.92
2023-05-22T13:00:14.904Z,48.60
2023-05-22T13:01:14.930Z,48.29
2023-05-22T13:02:14.913Z,48.16
2023-05-22T13:03:14.916Z,47.98
2023-05-22T13:04:14.935Z,47.63
2023-05-22T13:05:14.961Z,47.27
2023-05-22T13:06:14.931Z,47.04
2023-05-22T13:07:14.939Z,46.55